To NAV CANADA Home Page Login to a new session Search on AWWS site Disclaimer Vers la page française équivalente Tips FAQ What's new on the site To the Forecasts and Observations / NOTAM section To "File a Flight Plan" website Publications and other links Update of the User's profile FIC Telephone Numbers My Weather Data Folder Route Weather Data Regional Weather Data Local Weather Data To the Forecasts and Observations / NOTAM section
Request Generated 08/19/2022 at 01:14:49 UTC . Weather information available at that time is displayed.

METAR/TAF

WINNIPEG/JAMES ARMSTRONG RICHARDSON INTL/MB    

SPECI CYWG 190110Z 34006KT 15SM BKN089 OVC120 19/18 A2986 RMK AC6AS2 SLP117 DENSITY ALT 1500FT=
METAR CYWG 190100Z 34006KT 15SM -SHRA FEW030TCU BKN088 OVC120 19/18 A2986 RMK TCU1AC5AS3 TCU TR SLP116 DENSITY ALT 1500FT=
METAR CYWG 190000Z 01008KT 15SM -SHRA FEW018 FEW030TCU BKN073 OVC100 19/18 A2986 RMK SF1TCU1AC5AS3 SF TR TCU TR SLP117 DENSITY ALT 1
500FT=
METAR CYWG 182300Z 36007KT 15SM -SHRA FEW025TCU OVC100 19/18 A2987 RMK TCU2AS6 SLP120 DENSITY ALT 1500FT=

TAF CYWG 182340Z 1900/1924 36008KT P6SM -SHRA SCT015 BKN040 OVC100
TEMPO 1900/1905 5SM -SHRA BR SCT008 OVC015
FM190500 01010KT P6SM FEW015 OVC100 TEMPO 1905/1914 3SM -SHRA BR
FEW005 OVC012 PROB30 1905/1914 1/2SM FG VV002
FM191400 03015KT P6SM SCT015 BKN040 TEMPO 1914/1920 P6SM -SHRA
BKN015 OVC030
FM192000 03015KT P6SM FEW040
RMK NXT FCST BY 190600Z
Your time UTC time
Weather data provided by Environment Canada and NAV CANADA